sensor_id;sensor_type;location;lat;lon;timestamp;temperature;humidity
19813;DHT22;10066;48.108;11.448;2024-03-07T00:01:11;5.00;99.90
19813;DHT22;10066;48.108;11.448;2024-03-07T00:03:38;5.00;99.90
19813;DHT22;10066;48.108;11.448;2024-03-07T00:06:05;5.00;99.90
19813;DHT22;10066;48.108;11.448;2024-03-07T00:08:34;5.00;99.90
19813;DHT22;10066;48.108;11.448;2024-03-07T00:11:02;4.90;99.90
19813;DHT22;10066;48.108;11.448;2024-03-07T00:13:29;4.90;99.90
19813;DHT22;10066;48.108;11.448;2024-03-07T00:15:56;4.80;99.90
19813;DHT22;10066;48.108;11.448;2024-03-07T00:18:24;4.80;99.90
19813;DHT22;10066;48.108;11.448;2024-03-07T00:20:52;4.80;99.90
19813;DHT22;10066;48.108;11.448;2024-03-07T00:25:47;4.80;99.90
19813;DHT22;10066;48.108;11.448;2024-03-07T00:28:15;4.80;99.90
19813;DHT22;10066;48.108;11.448;2024-03-07T00:30:42;4.80;99.90
19813;DHT22;10066;48.108;11.448;2024-03-07T00:33:11;4.70;99.90
19813;DHT22;10066;48.108;11.448;2024-03-07T00:35:39;4.70;99.90
19813;DHT22;10066;48.108;11.448;2024-03-07T00:38:06;4.70;99.90
19813;DHT22;10066;48.108;11.448;2024-03-07T00:40:33;4.60;99.90
19813;DHT22;10066;48.108;11.448;2024-03-07T00:43:01;4.70;99.90
19813;DHT22;10066;48.108;11.448;2024-03-07T00:45:28;4.70;99.90
19813;DHT22;10066;48.108;11.448;2024-03-07T00:47:57;4.70;99.90
19813;DHT22;10066;48.108;11.448;2024-03-07T00:50:24;4.70;99.90
19813;DHT22;10066;48.108;11.448;2024-03-07T00:52:52;4.70;99.90
19813;DHT22;10066;48.108;11.448;2024-03-07T00:55:19;4.80;99.90
19813;DHT22;10066;48.108;11.448;2024-03-07T00:57:46;4.80;99.90
19813;DHT22;10066;48.108;11.448;2024-03-07T01:00:14;4.80;99.90
19813;DHT22;10066;48.108;11.448;2024-03-07T01:02:43;4.80;99.90
19813;DHT22;10066;48.108;11.448;2024-03-07T01:05:11;4.80;99.90
19813;DHT22;10066;48.108;11.448;2024-03-07T01:07:39;4.90;99.90
19813;DHT22;10066;48.108;11.448;2024-03-07T01:10:08;4.90;99.90
19813;DHT22;10066;48.108;11.448;2024-03-07T01:12:35;4.80;99.90
19813;DHT22;10066;48.108;11.448;2024-03-07T01:15:03;4.90;99.90
19813;DHT22;10066;48.108;11.448;2024-03-07T01:17:31;4.90;99.90
19813;DHT22;10066;48.108;11.448;2024-03-07T01:19:58;4.90;99.90
19813;DHT22;10066;48.108;11.448;2024-03-07T01:22:26;4.90;99.90
19813;DHT22;10066;48.108;11.448;2024-03-07T01:24:56;4.90;99.90
19813;DHT22;10066;48.108;11.448;2024-03-07T01:27:25;4.90;99.90
19813;DHT22;10066;48.108;11.448;2024-03-07T01:29:52;4.90;99.90
19813;DHT22;10066;48.108;11.448;2024-03-07T01:32:19;4.90;99.90
19813;DHT22;10066;48.108;11.448;2024-03-07T01:34:46;4.90;99.90
19813;DHT22;10066;48.108;11.448;2024-03-07T01:37:13;4.90;99.90
19813;DHT22;10066;48.108;11.448;2024-03-07T01:39:40;4.90;99.90
19813;DHT22;10066;48.108;11.448;2024-03-07T01:42:07;4.90;99.90
19813;DHT22;10066;48.108;11.448;2024-03-07T01:44:36;4.90;99.90
19813;DHT22;10066;48.108;11.448;2024-03-07T01:47:03;4.90;99.90
19813;DHT22;10066;48.108;11.448;2024-03-07T01:49:31;5.00;99.90
19813;DHT22;10066;48.108;11.448;2024-03-07T01:51:58;5.00;99.90
19813;DHT22;10066;48.108;11.448;2024-03-07T01:54:26;5.00;99.90
19813;DHT22;10066;48.108;11.448;2024-03-07T01:56:54;5.00;99.90
19813;DHT22;10066;48.108;11.448;2024-03-07T01:59:22;5.00;99.90
19813;DHT22;10066;48.108;11.448;2024-03-07T02:01:50;5.10;99.90
19813;DHT22;10066;48.108;11.448;2024-03-07T02:04:17;5.10;99.90
19813;DHT22;10066;48.108;11.448;2024-03-07T02:06:45;5.10;99.90
19813;DHT22;10066;48.108;11.448;2024-03-07T02:09:12;5.00;99.90
19813;DHT22;10066;48.108;11.448;2024-03-07T02:11:41;5.00;99.90
19813;DHT22;10066;48.108;11.448;2024-03-07T02:14:08;5.00;99.90
19813;DHT22;10066;48.108;11.448;2024-03-07T02:16:35;5.10;99.90
19813;DHT22;10066;48.108;11.448;2024-03-07T02:19:03;5.10;99.90
19813;DHT22;10066;48.108;11.448;2024-03-07T02:21:32;5.10;99.90
19813;DHT22;10066;48.108;11.448;2024-03-07T02:23:59;5.10;99.90
19813;DHT22;10066;48.108;11.448;2024-03-07T02:26:26;5.10;99.90
19813;DHT22;10066;48.108;11.448;2024-03-07T02:28:53;5.10;99.90
19813;DHT22;10066;48.108;11.448;2024-03-07T02:31:20;5.10;99.90
19813;DHT22;10066;48.108;11.448;2024-03-07T02:33:53;5.10;99.90
19813;DHT22;10066;48.108;11.448;2024-03-07T02:36:20;5.20;99.90
19813;DHT22;10066;48.108;11.448;2024-03-07T02:38:49;5.20;99.90
19813;DHT22;10066;48.108;11.448;2024-03-07T02:41:16;5.20;99.90
19813;DHT22;10066;48.108;11.448;2024-03-07T02:43:43;5.20;99.90
19813;DHT22;10066;48.108;11.448;2024-03-07T02:46:10;5.20;99.90
19813;DHT22;10066;48.108;11.448;2024-03-07T02:48:38;5.30;99.90
19813;DHT22;10066;48.108;11.448;2024-03-07T02:51:05;5.30;99.90
19813;DHT22;10066;48.108;11.448;2024-03-07T02:53:32;5.30;99.90
19813;DHT22;10066;48.108;11.448;2024-03-07T02:56:01;5.30;99.90
19813;DHT22;10066;48.108;11.448;2024-03-07T02:58:28;5.20;99.90
19813;DHT22;10066;48.108;11.448;2024-03-07T03:00:58;5.20;99.90
19813;DHT22;10066;48.108;11.448;2024-03-07T03:03:25;5.20;99.90
19813;DHT22;10066;48.108;11.448;2024-03-07T03:05:52;5.00;99.90
19813;DHT22;10066;48.108;11.448;2024-03-07T03:08:19;4.90;99.90
19813;DHT22;10066;48.108;11.448;2024-03-07T03:10:46;4.90;99.90
19813;DHT22;10066;48.108;11.448;2024-03-07T03:13:14;4.90;99.90
19813;DHT22;10066;48.108;11.448;2024-03-07T03:15:42;4.80;99.90
19813;DHT22;10066;48.108;11.448;2024-03-07T03:18:09;4.80;99.90
19813;DHT22;10066;48.108;11.448;2024-03-07T03:20:36;4.70;99.90
19813;DHT22;10066;48.108;11.448;2024-03-07T03:23:04;4.70;99.90
19813;DHT22;10066;48.108;11.448;2024-03-07T03:25:32;4.60;99.90
19813;DHT22;10066;48.108;11.448;2024-03-07T03:28:00;4.50;99.90
19813;DHT22;10066;48.108;11.448;2024-03-07T03:30:31;4.50;99.90
19813;DHT22;10066;48.108;11.448;2024-03-07T03:32:58;4.50;99.90
19813;DHT22;10066;48.108;11.448;2024-03-07T03:35:25;4.50;99.90
19813;DHT22;10066;48.108;11.448;2024-03-07T03:37:52;4.50;99.90
19813;DHT22;10066;48.108;11.448;2024-03-07T03:40:19;4.50;99.90
19813;DHT22;10066;48.108;11.448;2024-03-07T03:42:46;4.50;99.90
19813;DHT22;10066;48.108;11.448;2024-03-07T03:45:14;4.50;99.90
19813;DHT22;10066;48.108;11.448;2024-03-07T03:47:43;4.50;99.90
19813;DHT22;10066;48.108;11.448;2024-03-07T03:50:11;4.50;99.90
19813;DHT22;10066;48.108;11.448;2024-03-07T03:52:38;4.50;99.90
19813;DHT22;10066;48.108;11.448;2024-03-07T03:55:07;4.50;99.90
19813;DHT22;10066;48.108;11.448;2024-03-07T03:57:35;4.50;99.90
19813;DHT22;10066;48.108;11.448;2024-03-07T04:00:04;4.50;99.90
19813;DHT22;10066;48.108;11.448;2024-03-07T04:02:38;4.50;99.90
19813;DHT22;10066;48.108;11.448;2024-03-07T04:05:08;4.50;99.90
19813;DHT22;10066;48.108;11.448;2024-03-07T04:07:36;4.50;99.90
19813;DHT22;10066;48.108;11.448;2024-03-07T04:10:04;4.40;99.90
19813;DHT22;10066;48.108;11.448;2024-03-07T04:12:33;4.50;99.90
19813;DHT22;10066;48.108;11.448;2024-03-07T04:15:00;4.40;99.90
19813;DHT22;10066;48.108;11.448;2024-03-07T04:17:29;4.40;99.90
19813;DHT22;10066;48.108;11.448;2024-03-07T04:19:57;4.40;99.90
19813;DHT22;10066;48.108;11.448;2024-03-07T04:22:26;4.40;99.90
19813;DHT22;10066;48.108;11.448;2024-03-07T04:24:53;4.40;99.90
19813;DHT22;10066;48.108;11.448;2024-03-07T04:27:21;4.40;99.90
19813;DHT22;10066;48.108;11.448;2024-03-07T04:29:48;4.40;99.90
19813;DHT22;10066;48.108;11.448;2024-03-07T04:32:15;4.50;99.90
19813;DHT22;10066;48.108;11.448;2024-03-07T04:34:43;4.40;99.90
19813;DHT22;10066;48.108;11.448;2024-03-07T04:37:10;4.40;99.90
19813;DHT22;10066;48.108;11.448;2024-03-07T04:39:39;4.40;99.90
19813;DHT22;10066;48.108;11.448;2024-03-07T04:42:07;4.40;99.90
19813;DHT22;10066;48.108;11.448;2024-03-07T04:44:35;4.40;99.90
19813;DHT22;10066;48.108;11.448;2024-03-07T04:47:03;4.50;99.90
19813;DHT22;10066;48.108;11.448;2024-03-07T04:49:32;4.50;99.90
19813;DHT22;10066;48.108;11.448;2024-03-07T04:52:00;4.60;99.90
19813;DHT22;10066;48.108;11.448;2024-03-07T04:54:29;4.60;99.90
19813;DHT22;10066;48.108;11.448;2024-03-07T04:56:58;4.60;99.90
19813;DHT22;10066;48.108;11.448;2024-03-07T04:59:25;4.70;99.90
19813;DHT22;10066;48.108;11.448;2024-03-07T05:01:52;4.70;99.90
19813;DHT22;10066;48.108;11.448;2024-03-07T05:04:19;4.70;99.90
19813;DHT22;10066;48.108;11.448;2024-03-07T05:06:49;4.60;99.90
19813;DHT22;10066;48.108;11.448;2024-03-07T05:09:16;4.60;99.90
19813;DHT22;10066;48.108;11.448;2024-03-07T05:11:51;4.60;99.90
19813;DHT22;10066;48.108;11.448;2024-03-07T05:14:20;4.60;99.90
19813;DHT22;10066;48.108;11.448;2024-03-07T05:16:47;4.50;99.90
19813;DHT22;10066;48.108;11.448;2024-03-07T05:19:30;4.40;99.90
19813;DHT22;10066;48.108;11.448;2024-03-07T05:21:57;4.40;99.90
19813;DHT22;10066;48.108;11.448;2024-03-07T05:24:24;4.50;99.90
19813;DHT22;10066;48.108;11.448;2024-03-07T05:29:20;4.40;99.90
19813;DHT22;10066;48.108;11.448;2024-03-07T05:31:48;4.40;99.90
19813;DHT22;10066;48.108;11.448;2024-03-07T05:34:15;4.40;99.90
19813;DHT22;10066;48.108;11.448;2024-03-07T05:36:44;4.40;99.90
19813;DHT22;10066;48.108;11.448;2024-03-07T05:39:12;4.30;99.90
19813;DHT22;10066;48.108;11.448;2024-03-07T05:41:40;4.40;99.90
19813;DHT22;10066;48.108;11.448;2024-03-07T05:44:08;4.30;99.90
19813;DHT22;10066;48.108;11.448;2024-03-07T05:46:37;4.30;99.90
19813;DHT22;10066;48.108;11.448;2024-03-07T05:49:07;4.30;99.90
19813;DHT22;10066;48.108;11.448;2024-03-07T05:51:34;4.30;99.90
19813;DHT22;10066;48.108;11.448;2024-03-07T05:54:01;4.40;99.90
19813;DHT22;10066;48.108;11.448;2024-03-07T05:56:28;4.40;99.90
19813;DHT22;10066;48.108;11.448;2024-03-07T05:58:55;4.40;99.90
19813;DHT22;10066;48.108;11.448;2024-03-07T06:01:22;4.30;99.90
19813;DHT22;10066;48.108;11.448;2024-03-07T06:03:53;4.30;99.90
19813;DHT22;10066;48.108;11.448;2024-03-07T06:06:20;4.20;99.90
19813;DHT22;10066;48.108;11.448;2024-03-07T06:08:47;4.20;99.90
19813;DHT22;10066;48.108;11.448;2024-03-07T06:11:13;4.20;99.90
19813;DHT22;10066;48.108;11.448;2024-03-07T06:13:46;4.20;99.90
19813;DHT22;10066;48.108;11.448;2024-03-07T06:16:13;4.20;99.90
19813;DHT22;10066;48.108;11.448;2024-03-07T06:18:40;4.20;99.90
19813;DHT22;10066;48.108;11.448;2024-03-07T06:21:09;4.30;99.90
19813;DHT22;10066;48.108;11.448;2024-03-07T06:23:36;4.30;99.90
19813;DHT22;10066;48.108;11.448;2024-03-07T06:26:03;4.30;99.90
19813;DHT22;10066;48.108;11.448;2024-03-07T06:28:38;4.30;99.90
19813;DHT22;10066;48.108;11.448;2024-03-07T06:31:05;4.40;99.90
19813;DHT22;10066;48.108;11.448;2024-03-07T06:33:34;4.50;99.90
19813;DHT22;10066;48.108;11.448;2024-03-07T06:36:03;4.50;99.90
19813;DHT22;10066;48.108;11.448;2024-03-07T06:38:36;4.60;99.90
19813;DHT22;10066;48.108;11.448;2024-03-07T06:41:03;4.60;99.90
19813;DHT22;10066;48.108;11.448;2024-03-07T06:43:30;4.50;99.90
19813;DHT22;10066;48.108;11.448;2024-03-07T06:45:57;4.50;99.90
19813;DHT22;10066;48.108;11.448;2024-03-07T06:48:24;4.50;99.90
19813;DHT22;10066;48.108;11.448;2024-03-07T06:50:52;4.40;99.90
19813;DHT22;10066;48.108;11.448;2024-03-07T06:53:19;4.40;99.90
19813;DHT22;10066;48.108;11.448;2024-03-07T06:55:52;4.40;99.90
19813;DHT22;10066;48.108;11.448;2024-03-07T06:58:20;4.40;99.90
19813;DHT22;10066;48.108;11.448;2024-03-07T07:00:47;4.40;99.90
19813;DHT22;10066;48.108;11.448;2024-03-07T07:03:15;4.40;99.90
19813;DHT22;10066;48.108;11.448;2024-03-07T07:05:42;4.40;99.90
19813;DHT22;10066;48.108;11.448;2024-03-07T07:08:10;4.50;99.90
19813;DHT22;10066;48.108;11.448;2024-03-07T07:10:39;4.50;99.90
19813;DHT22;10066;48.108;11.448;2024-03-07T07:13:08;4.50;99.90
19813;DHT22;10066;48.108;11.448;2024-03-07T07:15:36;4.40;99.90
19813;DHT22;10066;48.108;11.448;2024-03-07T07:18:04;4.40;99.90
19813;DHT22;10066;48.108;11.448;2024-03-07T07:20:31;4.40;99.90
19813;DHT22;10066;48.108;11.448;2024-03-07T07:23:00;4.40;99.90
19813;DHT22;10066;48.108;11.448;2024-03-07T07:25:29;4.40;99.90
19813;DHT22;10066;48.108;11.448;2024-03-07T07:27:56;4.40;99.90
19813;DHT22;10066;48.108;11.448;2024-03-07T07:30:24;4.30;99.90
19813;DHT22;10066;48.108;11.448;2024-03-07T07:32:53;4.30;99.90
19813;DHT22;10066;48.108;11.448;2024-03-07T07:35:20;4.20;99.90
19813;DHT22;10066;48.108;11.448;2024-03-07T07:37:49;4.20;99.90
19813;DHT22;10066;48.108;11.448;2024-03-07T07:40:18;4.20;99.90
19813;DHT22;10066;48.108;11.448;2024-03-07T07:42:45;4.30;99.90
19813;DHT22;10066;48.108;11.448;2024-03-07T07:45:14;4.20;99.90
19813;DHT22;10066;48.108;11.448;2024-03-07T07:47:44;4.20;99.90
19813;DHT22;10066;48.108;11.448;2024-03-07T07:50:12;4.20;99.90
19813;DHT22;10066;48.108;11.448;2024-03-07T07:52:43;4.20;99.90
19813;DHT22;10066;48.108;11.448;2024-03-07T07:55:12;4.10;99.90
19813;DHT22;10066;48.108;11.448;2024-03-07T07:57:42;4.20;99.90
19813;DHT22;10066;48.108;11.448;2024-03-07T08:00:11;4.20;99.90
19813;DHT22;10066;48.108;11.448;2024-03-07T08:02:49;4.20;99.90
19813;DHT22;10066;48.108;11.448;2024-03-07T08:05:17;4.30;99.90
19813;DHT22;10066;48.108;11.448;2024-03-07T08:07:45;4.40;99.90
19813;DHT22;10066;48.108;11.448;2024-03-07T08:10:13;4.50;99.90
19813;DHT22;10066;48.108;11.448;2024-03-07T08:12:40;4.60;99.90
19813;DHT22;10066;48.108;11.448;2024-03-07T08:15:09;4.60;99.90
19813;DHT22;10066;48.108;11.448;2024-03-07T08:17:40;4.60;99.90
19813;DHT22;10066;48.108;11.448;2024-03-07T08:20:11;4.70;99.90
19813;DHT22;10066;48.108;11.448;2024-03-07T08:22:39;4.70;99.90
19813;DHT22;10066;48.108;11.448;2024-03-07T08:25:08;4.70;99.90
19813;DHT22;10066;48.108;11.448;2024-03-07T08:27:36;4.80;99.90
19813;DHT22;10066;48.108;11.448;2024-03-07T08:30:05;4.80;99.90
19813;DHT22;10066;48.108;11.448;2024-03-07T08:32:33;4.80;99.90
19813;DHT22;10066;48.108;11.448;2024-03-07T08:35:04;4.90;99.90
19813;DHT22;10066;48.108;11.448;2024-03-07T08:37:36;5.00;99.90
19813;DHT22;10066;48.108;11.448;2024-03-07T08:40:05;4.90;99.90
19813;DHT22;10066;48.108;11.448;2024-03-07T08:42:33;5.00;99.90
19813;DHT22;10066;48.108;11.448;2024-03-07T08:45:01;5.10;99.90
19813;DHT22;10066;48.108;11.448;2024-03-07T08:47:30;5.10;99.90
19813;DHT22;10066;48.108;11.448;2024-03-07T08:49:57;5.20;99.90
19813;DHT22;10066;48.108;11.448;2024-03-07T08:52:24;5.10;99.90
19813;DHT22;10066;48.108;11.448;2024-03-07T08:54:53;5.20;99.90
19813;DHT22;10066;48.108;11.448;2024-03-07T08:57:20;5.30;99.90
19813;DHT22;10066;48.108;11.448;2024-03-07T08:59:47;5.20;99.90
19813;DHT22;10066;48.108;11.448;2024-03-07T09:02:15;5.20;99.90
19813;DHT22;10066;48.108;11.448;2024-03-07T09:04:42;5.20;99.90
19813;DHT22;10066;48.108;11.448;2024-03-07T09:07:09;5.20;99.90
19813;DHT22;10066;48.108;11.448;2024-03-07T09:09:36;5.10;99.90
19813;DHT22;10066;48.108;11.448;2024-03-07T09:12:05;5.20;99.90
19813;DHT22;10066;48.108;11.448;2024-03-07T09:14:32;5.10;99.90
19813;DHT22;10066;48.108;11.448;2024-03-07T09:16:58;5.20;99.90
19813;DHT22;10066;48.108;11.448;2024-03-07T09:19:25;5.30;99.90
19813;DHT22;10066;48.108;11.448;2024-03-07T09:21:54;5.30;99.90
19813;DHT22;10066;48.108;11.448;2024-03-07T09:24:21;5.40;99.90
19813;DHT22;10066;48.108;11.448;2024-03-07T09:26:48;5.40;99.90
19813;DHT22;10066;48.108;11.448;2024-03-07T09:29:19;5.20;99.90
19813;DHT22;10066;48.108;11.448;2024-03-07T09:31:49;5.20;99.90
19813;DHT22;10066;48.108;11.448;2024-03-07T09:34:17;5.20;99.90
19813;DHT22;10066;48.108;11.448;2024-03-07T09:36:46;5.20;99.90
19813;DHT22;10066;48.108;11.448;2024-03-07T09:39:13;5.30;99.90
19813;DHT22;10066;48.108;11.448;2024-03-07T09:41:40;5.30;99.90
19813;DHT22;10066;48.108;11.448;2024-03-07T09:44:09;5.20;99.90
19813;DHT22;10066;48.108;11.448;2024-03-07T09:46:38;5.40;99.90
19813;DHT22;10066;48.108;11.448;2024-03-07T09:49:07;5.50;99.90
19813;DHT22;10066;48.108;11.448;2024-03-07T09:54:04;5.90;99.90
19813;DHT22;10066;48.108;11.448;2024-03-07T09:56:31;6.10;99.90
19813;DHT22;10066;48.108;11.448;2024-03-07T09:59:03;6.10;99.90
19813;DHT22;10066;48.108;11.448;2024-03-07T10:01:33;6.10;99.90
19813;DHT22;10066;48.108;11.448;2024-03-07T10:04:02;6.20;99.90
19813;DHT22;10066;48.108;11.448;2024-03-07T10:06:37;6.20;99.90
19813;DHT22;10066;48.108;11.448;2024-03-07T10:09:04;6.20;99.90
19813;DHT22;10066;48.108;11.448;2024-03-07T10:11:32;6.20;99.90
19813;DHT22;10066;48.108;11.448;2024-03-07T10:13:59;6.10;99.90
19813;DHT22;10066;48.108;11.448;2024-03-07T10:16:29;6.20;99.90
19813;DHT22;10066;48.108;11.448;2024-03-07T10:18:56;6.20;99.90
19813;DHT22;10066;48.108;11.448;2024-03-07T10:21:25;6.20;99.90
19813;DHT22;10066;48.108;11.448;2024-03-07T10:24:04;6.10;99.90
19813;DHT22;10066;48.108;11.448;2024-03-07T10:26:34;6.10;99.90
19813;DHT22;10066;48.108;11.448;2024-03-07T10:29:01;6.10;99.90
19813;DHT22;10066;48.108;11.448;2024-03-07T10:31:29;6.00;99.90
19813;DHT22;10066;48.108;11.448;2024-03-07T10:33:59;6.10;99.90
19813;DHT22;10066;48.108;11.448;2024-03-07T10:36:29;6.10;99.90
19813;DHT22;10066;48.108;11.448;2024-03-07T10:38:57;6.00;99.90
19813;DHT22;10066;48.108;11.448;2024-03-07T10:41:44;6.00;99.90
19813;DHT22;10066;48.108;11.448;2024-03-07T10:44:19;6.10;99.90
19813;DHT22;10066;48.108;11.448;2024-03-07T10:46:52;6.20;99.90
19813;DHT22;10066;48.108;11.448;2024-03-07T10:49:20;6.30;99.90
19813;DHT22;10066;48.108;11.448;2024-03-07T10:51:58;6.40;99.90
19813;DHT22;10066;48.108;11.448;2024-03-07T10:54:36;6.50;99.90
19813;DHT22;10066;48.108;11.448;2024-03-07T10:57:18;6.60;99.90
19813;DHT22;10066;48.108;11.448;2024-03-07T10:59:50;6.70;99.90
19813;DHT22;10066;48.108;11.448;2024-03-07T11:02:30;6.90;99.90
19813;DHT22;10066;48.108;11.448;2024-03-07T11:05:00;7.00;99.90
19813;DHT22;10066;48.108;11.448;2024-03-07T11:07:29;7.10;99.90
19813;DHT22;10066;48.108;11.448;2024-03-07T11:09:57;7.20;99.90
19813;DHT22;10066;48.108;11.448;2024-03-07T11:12:26;7.40;99.90
19813;DHT22;10066;48.108;11.448;2024-03-07T11:14:55;7.60;99.90
19813;DHT22;10066;48.108;11.448;2024-03-07T11:17:23;7.70;99.90
19813;DHT22;10066;48.108;11.448;2024-03-07T11:19:50;7.80;99.90
19813;DHT22;10066;48.108;11.448;2024-03-07T11:22:31;7.80;99.90
19813;DHT22;10066;48.108;11.448;2024-03-07T11:25:04;7.90;99.90
19813;DHT22;10066;48.108;11.448;2024-03-07T11:27:33;7.80;99.90
19813;DHT22;10066;48.108;11.448;2024-03-07T11:30:05;7.90;99.90
19813;DHT22;10066;48.108;11.448;2024-03-07T11:32:35;7.90;99.90
19813;DHT22;10066;48.108;11.448;2024-03-07T11:35:04;7.90;99.90
19813;DHT22;10066;48.108;11.448;2024-03-07T11:37:42;7.90;99.90
19813;DHT22;10066;48.108;11.448;2024-03-07T11:40:12;7.90;99.90
19813;DHT22;10066;48.108;11.448;2024-03-07T11:42:46;7.90;99.90
19813;DHT22;10066;48.108;11.448;2024-03-07T11:45:15;8.00;99.90
19813;DHT22;10066;48.108;11.448;2024-03-07T11:47:51;8.00;99.90
19813;DHT22;10066;48.108;11.448;2024-03-07T11:50:23;8.10;99.90
19813;DHT22;10066;48.108;11.448;2024-03-07T11:52:53;8.20;99.90
19813;DHT22;10066;48.108;11.448;2024-03-07T11:55:21;8.30;99.90
19813;DHT22;10066;48.108;11.448;2024-03-07T11:57:48;8.40;99.90
19813;DHT22;10066;48.108;11.448;2024-03-07T12:00:18;8.40;99.90
19813;DHT22;10066;48.108;11.448;2024-03-07T12:02:46;8.50;99.90
19813;DHT22;10066;48.108;11.448;2024-03-07T12:05:14;8.50;99.90
19813;DHT22;10066;48.108;11.448;2024-03-07T12:07:43;8.60;99.90
19813;DHT22;10066;48.108;11.448;2024-03-07T12:10:12;8.70;99.90
19813;DHT22;10066;48.108;11.448;2024-03-07T12:12:40;8.80;99.90
19813;DHT22;10066;48.108;11.448;2024-03-07T12:15:08;8.80;99.90
19813;DHT22;10066;48.108;11.448;2024-03-07T12:17:45;8.60;99.90
19813;DHT22;10066;48.108;11.448;2024-03-07T12:20:15;8.40;99.90
19813;DHT22;10066;48.108;11.448;2024-03-07T12:22:56;8.20;99.90
19813;DHT22;10066;48.108;11.448;2024-03-07T12:25:24;8.00;99.90
19813;DHT22;10066;48.108;11.448;2024-03-07T12:28:04;7.80;99.90
19813;DHT22;10066;48.108;11.448;2024-03-07T12:30:33;7.70;99.90
19813;DHT22;10066;48.108;11.448;2024-03-07T12:33:01;7.70;99.90
19813;DHT22;10066;48.108;11.448;2024-03-07T12:35:33;7.60;99.90
19813;DHT22;10066;48.108;11.448;2024-03-07T12:38:00;7.50;99.90
19813;DHT22;10066;48.108;11.448;2024-03-07T12:40:30;7.50;99.90
19813;DHT22;10066;48.108;11.448;2024-03-07T12:42:59;7.50;99.90
19813;DHT22;10066;48.108;11.448;2024-03-07T12:45:28;7.50;99.90
19813;DHT22;10066;48.108;11.448;2024-03-07T12:47:59;7.40;99.90
19813;DHT22;10066;48.108;11.448;2024-03-07T12:50:30;7.40;99.90
19813;DHT22;10066;48.108;11.448;2024-03-07T12:53:01;7.50;99.90
19813;DHT22;10066;48.108;11.448;2024-03-07T12:55:32;7.50;99.90
19813;DHT22;10066;48.108;11.448;2024-03-07T12:58:00;7.60;99.90
19813;DHT22;10066;48.108;11.448;2024-03-07T13:00:28;7.70;99.90
19813;DHT22;10066;48.108;11.448;2024-03-07T13:02:55;7.80;99.90
19813;DHT22;10066;48.108;11.448;2024-03-07T13:07:58;8.00;99.90
19813;DHT22;10066;48.108;11.448;2024-03-07T13:10:25;8.10;99.90
19813;DHT22;10066;48.108;11.448;2024-03-07T13:12:53;8.20;99.90
19813;DHT22;10066;48.108;11.448;2024-03-07T13:15:20;8.30;99.90
19813;DHT22;10066;48.108;11.448;2024-03-07T13:17:50;8.30;99.90
19813;DHT22;10066;48.108;11.448;2024-03-07T13:20:20;8.30;99.90
19813;DHT22;10066;48.108;11.448;2024-03-07T13:22:52;8.30;99.90
19813;DHT22;10066;48.108;11.448;2024-03-07T13:25:22;8.30;99.90
19813;DHT22;10066;48.108;11.448;2024-03-07T13:27:55;8.20;99.90
19813;DHT22;10066;48.108;11.448;2024-03-07T13:30:24;8.20;99.90
19813;DHT22;10066;48.108;11.448;2024-03-07T13:32:54;8.20;99.90
19813;DHT22;10066;48.108;11.448;2024-03-07T13:35:21;8.20;99.90
19813;DHT22;10066;48.108;11.448;2024-03-07T13:37:49;8.30;99.90
19813;DHT22;10066;48.108;11.448;2024-03-07T13:40:17;8.30;99.90
19813;DHT22;10066;48.108;11.448;2024-03-07T13:42:56;8.30;99.90
19813;DHT22;10066;48.108;11.448;2024-03-07T13:45:25;8.30;99.90
19813;DHT22;10066;48.108;11.448;2024-03-07T13:47:53;8.20;99.90
19813;DHT22;10066;48.108;11.448;2024-03-07T13:50:23;8.30;99.90
19813;DHT22;10066;48.108;11.448;2024-03-07T13:52:51;8.30;99.90
19813;DHT22;10066;48.108;11.448;2024-03-07T13:55:55;8.30;99.90
19813;DHT22;10066;48.108;11.448;2024-03-07T14:01:37;8.20;99.90
19813;DHT22;10066;48.108;11.448;2024-03-07T14:04:39;8.10;99.90
19813;DHT22;10066;48.108;11.448;2024-03-07T14:07:27;8.10;99.90
19813;DHT22;10066;48.108;11.448;2024-03-07T14:10:21;8.00;99.90
19813;DHT22;10066;48.108;11.448;2024-03-07T14:13:22;8.00;99.90
19813;DHT22;10066;48.108;11.448;2024-03-07T14:16:19;7.90;99.90
19813;DHT22;10066;48.108;11.448;2024-03-07T14:21:58;7.60;99.90
19813;DHT22;10066;48.108;11.448;2024-03-07T14:27:36;7.50;99.90
19813;DHT22;10066;48.108;11.448;2024-03-07T14:30:29;7.40;99.90
19813;DHT22;10066;48.108;11.448;2024-03-07T14:33:06;7.40;99.90
19813;DHT22;10066;48.108;11.448;2024-03-07T14:38:28;7.30;99.90
19813;DHT22;10066;48.108;11.448;2024-03-07T14:40:55;7.20;99.90
19813;DHT22;10066;48.108;11.448;2024-03-07T14:43:24;7.20;99.90
19813;DHT22;10066;48.108;11.448;2024-03-07T14:45:51;7.20;99.90
19813;DHT22;10066;48.108;11.448;2024-03-07T14:48:21;7.20;99.90
19813;DHT22;10066;48.108;11.448;2024-03-07T14:50:48;7.20;99.90
19813;DHT22;10066;48.108;11.448;2024-03-07T14:53:15;7.20;99.90
19813;DHT22;10066;48.108;11.448;2024-03-07T14:55:45;7.10;99.90
19813;DHT22;10066;48.108;11.448;2024-03-07T14:58:13;7.10;99.90
19813;DHT22;10066;48.108;11.448;2024-03-07T15:00:42;7.10;99.90
19813;DHT22;10066;48.108;11.448;2024-03-07T15:03:15;7.10;99.90
19813;DHT22;10066;48.108;11.448;2024-03-07T15:05:44;7.10;99.90
19813;DHT22;10066;48.108;11.448;2024-03-07T15:08:12;7.10;99.90
19813;DHT22;10066;48.108;11.448;2024-03-07T15:10:43;7.10;99.90
19813;DHT22;10066;48.108;11.448;2024-03-07T15:13:13;7.10;99.90
19813;DHT22;10066;48.108;11.448;2024-03-07T15:15:42;7.10;99.90
19813;DHT22;10066;48.108;11.448;2024-03-07T15:18:10;7.20;99.90
19813;DHT22;10066;48.108;11.448;2024-03-07T15:20:38;7.10;99.90
19813;DHT22;10066;48.108;11.448;2024-03-07T15:23:05;7.10;99.90
19813;DHT22;10066;48.108;11.448;2024-03-07T15:25:33;7.00;99.90
19813;DHT22;10066;48.108;11.448;2024-03-07T15:28:02;6.90;99.90
19813;DHT22;10066;48.108;11.448;2024-03-07T15:30:32;7.00;99.90
19813;DHT22;10066;48.108;11.448;2024-03-07T15:33:00;6.90;99.90
19813;DHT22;10066;48.108;11.448;2024-03-07T15:35:28;6.90;99.90
19813;DHT22;10066;48.108;11.448;2024-03-07T15:37:56;6.90;99.90
19813;DHT22;10066;48.108;11.448;2024-03-07T15:40:24;6.90;99.90
19813;DHT22;10066;48.108;11.448;2024-03-07T15:42:55;6.90;99.90
19813;DHT22;10066;48.108;11.448;2024-03-07T15:45:24;6.80;99.90
19813;DHT22;10066;48.108;11.448;2024-03-07T15:47:57;6.80;99.90
19813;DHT22;10066;48.108;11.448;2024-03-07T15:50:26;6.70;99.90
19813;DHT22;10066;48.108;11.448;2024-03-07T15:52:55;6.70;99.90
19813;DHT22;10066;48.108;11.448;2024-03-07T15:55:24;6.70;99.90
19813;DHT22;10066;48.108;11.448;2024-03-07T15:57:54;6.70;99.90
19813;DHT22;10066;48.108;11.448;2024-03-07T16:00:22;6.70;99.90
19813;DHT22;10066;48.108;11.448;2024-03-07T16:02:54;6.70;99.90
19813;DHT22;10066;48.108;11.448;2024-03-07T16:05:22;6.60;99.90